Time;durP1;ratioP1;P1;durP2;ratioP2;P2;SDS_P1;SDS_P2;PMS_P1;PMS_P2;Temp;Humidity;BMP_temperature;BMP_pressure;BME280_temperature;BME280_humidity;BME280_pressure;Samples;Min_cycle;Max_cycle;Signal;HPM_P1;HPM_P2
2022/06/15 00:01:12;;;;;;;;;10.00;7.75;;;;;20.84;95.08;101213.91;4989303;28;44737;-87
2022/06/15 00:03:38;;;;;;;;;8.60;7.80;;;;;20.79;98.90;101203.56;5006686;28;45327;-89
2022/06/15 00:06:08;;;;;;;;;9.25;9.25;;;;;20.74;98.31;101204.06;5008913;28;44889;-88
2022/06/15 00:08:37;;;;;;;;;11.00;9.40;;;;;20.69;98.48;101203.66;5026696;28;46888;-89
2022/06/15 00:11:05;;;;;;;;;7.20;4.20;;;;;20.62;99.31;101202.63;5030511;28;44707;-87
2022/06/15 00:13:31;;;;;;;;;7.40;5.80;;;;;20.58;97.93;101203.09;5033341;28;44811;-88
2022/06/15 00:16:00;;;;;;;;;7.00;6.00;;;;;20.56;96.90;101205.09;5029751;28;44968;-90
2022/06/15 00:18:28;;;;;;;;;7.60;7.20;;;;;20.53;100.00;101198.16;5033383;28;45317;-88
2022/06/15 00:20:55;;;;;;;;;7.00;6.80;;;;;20.48;99.29;101195.91;5019221;28;45287;-88
2022/06/15 00:23:22;;;;;;;;;7.80;7.00;;;;;20.47;99.55;101206.88;5039802;28;44871;-87
2022/06/15 00:25:50;;;;;;;;;6.00;3.75;;;;;20.41;97.14;101208.31;5027489;28;44827;-87
2022/06/15 00:28:17;;;;;;;;;8.00;7.20;;;;;20.34;99.77;101199.13;5023216;28;45296;-87
2022/06/15 00:30:45;;;;;;;;;7.40;7.40;;;;;20.32;95.83;101206.53;5046169;28;44767;-87
2022/06/15 00:33:11;;;;;;;;;11.80;9.00;;;;;20.27;100.00;101204.31;5029068;28;44835;-89
2022/06/15 00:35:38;;;;;;;;;13.75;9.25;;;;;20.26;100.00;101207.16;5040551;28;44989;-90
2022/06/15 00:38:04;;;;;;;;;4.60;4.60;;;;;20.17;97.90;101200.84;5043534;28;45154;-88
2022/06/15 00:40:30;;;;;;;;;7.80;7.80;;;;;20.19;99.42;101208.78;5026103;28;44669;-90
2022/06/15 00:42:57;;;;;;;;;10.50;7.75;;;;;20.14;100.00;101201.13;5043688;28;44653;-91
2022/06/15 00:45:23;;;;;;;;;9.60;7.80;;;;;20.16;100.00;101209.06;5041325;28;45202;-90
2022/06/15 00:47:50;;;;;;;;;9.00;9.00;;;;;20.10;100.00;101210.53;5022460;28;45272;-89
2022/06/15 00:50:24;;;;;;;;;9.40;8.20;;;;;20.08;100.00;101203.63;5032728;28;44767;-90
2022/06/15 00:53:00;;;;;;;;;8.20;6.60;;;;;20.01;100.00;101209.59;5028554;28;44799;-91
2022/06/15 00:55:31;;;;;;;;;7.40;7.40;;;;;19.99;96.39;101206.22;5011606;28;44862;-88
2022/06/15 00:58:01;;;;;;;;;9.00;7.80;;;;;20.00;100.00;101207.91;4997199;28;45343;-91
2022/06/15 01:00:27;;;;;;;;;8.60;7.60;;;;;19.97;100.00;101212.78;5029252;28;44739;-89
2022/06/15 01:02:53;;;;;;;;;6.80;6.80;;;;;19.94;97.88;101216.63;5009401;28;45385;-90
2022/06/15 01:05:31;;;;;;;;;6.00;6.00;;;;;19.89;100.00;101209.97;5006203;28;44955;-89
2022/06/15 01:08:21;;;;;;;;;9.60;8.40;;;;;19.88;100.00;101213.69;5007473;28;46806;-89
2022/06/15 01:11:12;;;;;;;;;9.20;7.80;;;;;19.84;100.00;101199.66;5011423;28;45237;-90
2022/06/15 01:14:07;;;;;;;;;7.60;7.40;;;;;19.82;100.00;101206.19;5014723;28;44723;-89
2022/06/15 01:16:45;;;;;;;;;7.00;7.00;;;;;19.75;100.00;101206.78;5033676;28;44891;-90
2022/06/15 01:19:47;;;;;;;;;5.80;5.80;;;;;19.73;100.00;101206.09;5033598;28;45349;-88
2022/06/15 01:22:41;;;;;;;;;10.60;8.00;;;;;19.70;100.00;101213.63;5015723;28;44790;-88
2022/06/15 01:25:45;;;;;;;;;8.40;8.40;;;;;19.67;100.00;101208.53;5013336;28;45367;-90
2022/06/15 01:28:34;;;;;;;;;9.25;9.25;;;;;19.65;100.00;101206.00;5031376;28;44754;-90
2022/06/15 01:31:31;;;;;;;;;8.00;8.00;;;;;19.59;100.00;101201.19;5002493;28;45334;-92
2022/06/15 01:34:39;;;;;;;;;8.00;7.20;;;;;19.60;100.00;101199.38;4965485;28;44809;-92
2022/06/15 01:37:23;;;;;;;;;10.20;7.80;;;;;19.56;100.00;101204.16;4927606;28;44820;-89
2022/06/15 01:40:13;;;;;;;;;7.60;5.60;;;;;19.56;100.00;101208.72;4919312;28;44885;-89
2022/06/15 01:42:48;;;;;;;;;10.00;8.60;;;;;19.54;100.00;101197.25;4912604;29;45390;-89
2022/06/15 01:45:23;;;;;;;;;4.60;4.60;;;;;19.45;100.00;101194.44;4915231;29;44732;-91
2022/06/15 01:47:52;;;;;;;;;9.00;8.00;;;;;19.47;100.00;101196.97;4921162;28;44646;-88
2022/06/15 01:50:26;;;;;;;;;8.00;8.00;;;;;19.43;100.00;101198.25;4919948;29;44816;-89
2022/06/15 01:53:17;;;;;;;;;7.80;7.80;;;;;19.39;100.00;101197.75;4896982;29;45191;-89
2022/06/15 01:56:17;;;;;;;;;9.60;6.60;;;;;19.35;100.00;101193.63;4902786;29;44810;-88
2022/06/15 01:58:47;;;;;;;;;8.20;8.20;;;;;19.33;100.00;101187.53;4921419;28;45223;-89
2022/06/15 02:01:38;;;;;;;;;5.40;4.60;;;;;19.26;100.00;101181.91;4903675;28;44927;-93
2022/06/15 02:11:00;;;;;;;;;6.80;4.00;;;;;19.14;100.00;101185.75;4946561;28;44840;-93
2022/06/15 02:13:32;;;;;;;;;6.80;6.80;;;;;19.06;100.00;101171.34;4992564;28;44882;-88
2022/06/15 02:16:06;;;;;;;;;8.00;6.60;;;;;19.03;100.00;101172.47;4994177;28;46025;-87
2022/06/15 02:18:35;;;;;;;;;11.00;10.00;;;;;18.98;100.00;101167.53;5005800;28;44688;-87
2022/06/15 02:21:07;;;;;;;;;9.40;8.00;;;;;18.96;100.00;101169.53;4984590;28;44841;-89
2022/06/15 02:23:38;;;;;;;;;7.75;6.25;;;;;18.97;100.00;101170.38;5004615;28;44781;-88
2022/06/15 02:26:05;;;;;;;;;6.60;6.60;;;;;18.93;100.00;101168.97;5007155;28;45495;-87
2022/06/15 02:28:38;;;;;;;;;7.60;6.80;;;;;18.89;100.00;101163.03;5006311;28;45279;-86
2022/06/15 02:31:04;;;;;;;;;9.20;8.60;;;;;18.91;100.00;101170.97;4990070;28;45479;-87
2022/06/15 02:33:32;;;;;;;;;9.25;8.25;;;;;18.90;100.00;101171.94;5012854;28;44840;-87
2022/06/15 02:36:00;;;;;;;;;8.60;5.80;;;;;18.82;100.00;101158.38;5030391;28;46557;-87
2022/06/15 02:38:27;;;;;;;;;7.80;7.40;;;;;18.84;100.00;101161.78;5032811;28;44889;-88
2022/06/15 02:40:53;;;;;;;;;6.60;6.60;;;;;18.85;100.00;101164.31;5032652;28;44805;-88
2022/06/15 02:43:22;;;;;;;;;10.00;8.00;;;;;18.80;100.00;101163.06;5044605;28;45316;-88
2022/06/15 02:45:49;;;;;;;;;6.80;6.80;;;;;18.75;100.00;101167.03;5040805;28;45525;-87
2022/06/15 02:48:16;;;;;;;;;7.20;7.20;;;;;18.72;100.00;101167.34;5023294;28;44794;-86
2022/06/15 02:51:09;;;;;;;;;7.40;7.40;;;;;18.67;100.00;101160.66;5038702;28;45392;-87
2022/06/15 02:53:37;;;;;;;;;8.75;8.75;;;;;18.67;100.00;101158.81;5027560;28;45361;-89
2022/06/15 02:56:05;;;;;;;;;6.00;6.00;;;;;18.66;100.00;101156.25;5040336;28;45269;-88
2022/06/15 02:58:43;;;;;;;;;8.80;7.80;;;;;18.66;100.00;101165.19;5041264;28;44756;-88
2022/06/15 03:01:10;;;;;;;;;8.00;8.00;;;;;18.63;100.00;101168.16;5044953;28;45463;-89
2022/06/15 03:03:36;;;;;;;;;7.50;7.50;;;;;18.60;100.00;101162.22;5030857;28;44945;-87
2022/06/15 03:06:02;;;;;;;;;7.40;5.40;;;;;18.59;100.00;101161.38;5033379;28;46794;-87
2022/06/15 03:08:28;;;;;;;;;7.75;7.75;;;;;18.58;100.00;101156.16;5050149;28;44790;-87
2022/06/15 03:10:54;;;;;;;;;4.50;4.25;;;;;18.57;100.00;101165.22;5032112;28;44794;-87
2022/06/15 03:13:22;;;;;;;;;6.75;6.75;;;;;18.58;100.00;101166.91;5038317;28;44858;-91
2022/06/15 03:15:50;;;;;;;;;9.40;7.00;;;;;18.57;100.00;101170.59;5047602;28;45284;-91
2022/06/15 03:18:16;;;;;;;;;7.60;6.80;;;;;18.57;100.00;101165.22;5056791;28;44762;-93
2022/06/15 03:20:46;;;;;;;;;7.60;4.00;;;;;18.55;100.00;101176.09;5049098;28;44748;-91
2022/06/15 03:23:19;;;;;;;;;13.25;12.25;;;;;18.54;100.00;101170.88;5048443;28;44743;-91
2022/06/15 03:30:55;;;;;;;;;6.20;6.20;;;;;18.58;100.00;101177.66;4116247;22;45320;-89
2022/06/15 03:33:24;;;;;;;;;8.50;7.50;;;;;18.56;100.00;101177.78;5044032;28;44991;-86
2022/06/15 03:35:50;;;;;;;;;3.75;3.75;;;;;18.57;100.00;101182.22;5044405;28;45428;-87
2022/06/15 03:38:16;;;;;;;;;12.50;9.00;;;;;18.59;100.00;101182.06;5026436;28;44794;-87
2022/06/15 03:40:51;;;;;;;;;9.50;8.50;;;;;18.56;100.00;101175.09;5028128;28;44714;-94
2022/06/15 03:43:20;;;;;;;;;12.00;8.50;;;;;18.60;100.00;101173.81;5043703;28;44794;-95
2022/06/15 03:49:21;;;;;;;;;10.00;9.40;;;;;18.65;100.00;101176.09;5045894;22;45230;-88
2022/06/15 03:51:47;;;;;;;;;7.20;7.20;;;;;18.66;100.00;101177.78;5024393;28;44727;-89
2022/06/15 03:54:12;;;;;;;;;8.50;8.50;;;;;18.67;100.00;101172.28;5044425;28;45495;-88
2022/06/15 03:56:44;;;;;;;;;11.00;9.00;;;;;18.71;100.00;101176.41;5043684;28;45164;-87
2022/06/15 03:59:10;;;;;;;;;6.80;6.20;;;;;18.74;100.00;101173.41;5041897;28;44739;-87
2022/06/15 04:01:35;;;;;;;;;9.60;7.20;;;;;18.77;100.00;101171.44;5026510;28;44758;-87
2022/06/15 04:04:09;;;;;;;;;7.75;7.75;;;;;18.82;100.00;101179.94;5049847;28;44841;-88
2022/06/15 04:06:35;;;;;;;;;7.20;7.20;;;;;18.84;100.00;101177.94;5033784;28;46152;-86
2022/06/15 04:09:00;;;;;;;;;9.00;7.00;;;;;18.87;100.00;101170.41;5033161;28;44777;-86
2022/06/15 04:14:10;;;;;;;;;10.50;9.25;;;;;18.92;100.00;101169.97;5043015;28;44691;-89
2022/06/15 04:16:40;;;;;;;;;6.25;6.25;;;;;18.92;100.00;101170.81;5024554;28;46046;-88
2022/06/15 04:19:08;;;;;;;;;6.60;5.00;;;;;18.93;100.00;101174.34;5045250;28;44783;-88
2022/06/15 04:21:34;;;;;;;;;10.20;9.00;;;;;18.95;100.00;101173.25;5046515;28;44699;-87
2022/06/15 04:24:01;;;;;;;;;10.00;9.00;;;;;18.96;100.00;101169.53;5701393;22;45988;-88
2022/06/15 04:26:26;;;;;;;;;8.00;7.60;;;;;19.03;100.00;101175.19;5052935;28;45112;-88
2022/06/15 04:28:52;;;;;;;;;6.75;5.00;;;;;19.05;100.00;101175.91;5054904;28;45282;-88
2022/06/15 04:31:20;;;;;;;;;8.50;8.50;;;;;19.06;100.00;101180.28;5049031;28;44705;-88
2022/06/15 04:33:45;;;;;;;;;8.75;8.75;;;;;19.15;100.00;101167.78;5026737;28;45163;-87
2022/06/15 04:36:13;;;;;;;;;9.50;9.00;;;;;19.24;100.00;101165.03;5025475;28;46329;-88
2022/06/15 04:38:39;;;;;;;;;8.40;8.40;;;;;19.33;100.00;101170.53;5027953;28;44634;-89
2022/06/15 04:41:04;;;;;;;;;6.50;6.50;;;;;19.45;100.00;101178.28;5048537;28;44831;-90
2022/06/15 04:43:30;;;;;;;;;7.75;7.75;;;;;19.60;100.00;101178.66;5053361;28;45230;-87
2022/06/15 04:45:55;;;;;;;;;10.75;8.50;;;;;19.74;100.00;101178.13;5051985;28;44981;-88
2022/06/15 04:48:21;;;;;;;;;7.25;6.50;;;;;19.84;100.00;101183.47;5013557;28;45301;-88
2022/06/15 04:50:47;;;;;;;;;7.25;7.25;;;;;19.95;100.00;101183.25;5006902;28;44735;-87
2022/06/15 04:53:12;;;;;;;;;10.75;8.75;;;;;20.14;100.00;101182.25;5023526;28;45015;-88
2022/06/15 04:55:38;;;;;;;;;6.25;6.25;;;;;20.31;100.00;101182.38;5026193;28;45315;-90
2022/06/15 04:58:05;;;;;;;;;8.00;8.00;;;;;20.47;100.00;101193.38;5013818;28;44830;-89
2022/06/15 05:00:37;;;;;;;;;8.80;6.80;;;;;20.49;100.00;101188.66;5025400;28;45329;-89
2022/06/15 05:03:03;;;;;;;;;8.60;5.60;;;;;20.64;100.00;101194.34;5023966;28;44831;-90
2022/06/15 05:05:30;;;;;;;;;10.80;8.20;;;;;20.72;100.00;101187.16;5027588;28;46974;-87
2022/06/15 05:07:55;;;;;;;;;9.40;9.40;;;;;20.94;100.00;101185.81;5024603;28;45238;-90
2022/06/15 05:10:23;;;;;;;;;7.50;7.50;;;;;21.19;100.00;101192.19;5028430;28;44612;-89
2022/06/15 05:12:48;;;;;;;;;8.20;6.80;;;;;21.25;100.00;101188.84;5027199;28;44934;-89
2022/06/15 05:15:15;;;;;;;;;7.00;5.00;;;;;21.37;100.00;101197.56;5022211;28;45155;-89
2022/06/15 05:17:44;;;;;;;;;5.40;5.40;;;;;21.51;100.00;101196.91;5007027;28;44860;-89
2022/06/15 05:20:13;;;;;;;;;7.60;6.80;;;;;21.69;100.00;101193.28;5004295;28;44897;-90
2022/06/15 05:22:39;;;;;;;;;8.60;7.60;;;;;21.89;100.00;101191.13;5022562;28;44910;-88
2022/06/15 05:25:07;;;;;;;;;12.25;7.50;;;;;22.06;100.00;101198.28;5015818;28;46557;-89
2022/06/15 05:27:34;;;;;;;;;6.60;6.60;;;;;22.26;100.00;101193.44;5025900;28;44913;-89
2022/06/15 05:30:00;;;;;;;;;15.80;12.40;;;;;22.37;100.00;101192.25;5023594;28;44822;-89
2022/06/15 05:32:27;;;;;;;;;8.50;8.50;;;;;22.47;100.00;101190.22;5024119;28;44880;-90
2022/06/15 05:34:57;;;;;;;;;9.20;9.20;;;;;22.53;100.00;101194.97;5023057;28;45088;-91
2022/06/15 05:37:24;;;;;;;;;9.80;8.20;;;;;22.54;100.00;101193.97;5027411;28;44731;-89
2022/06/15 05:39:50;;;;;;;;;10.40;8.60;;;;;22.67;100.00;101196.16;5026772;28;45406;-87
2022/06/15 05:42:20;;;;;;;;;6.00;6.00;;;;;22.88;100.00;101192.91;5042300;28;44861;-87
2022/06/15 05:44:48;;;;;;;;;7.00;7.00;;;;;23.09;100.00;101193.25;5025499;28;46891;-87
2022/06/15 05:47:14;;;;;;;;;7.80;7.20;;;;;23.17;99.68;101187.81;5027499;28;44779;-88
2022/06/15 05:49:40;;;;;;;;;9.60;8.20;;;;;23.29;97.97;101197.22;5045364;28;44911;-89
2022/06/15 05:52:07;;;;;;;;;6.00;6.00;;;;;23.42;97.69;101193.13;5028947;28;44782;-88
2022/06/15 05:54:32;;;;;;;;;7.60;6.40;;;;;23.46;98.01;101187.19;5045260;28;45122;-88
2022/06/15 05:56:58;;;;;;;;;10.50;6.50;;;;;23.43;96.97;101192.94;5030971;28;44742;-88
2022/06/15 05:59:23;;;;;;;;;9.00;7.50;;;;;23.30;96.62;101192.66;5028644;28;45401;-89
2022/06/15 06:01:49;;;;;;;;;7.50;7.50;;;;;23.38;100.00;101189.94;5028435;28;44766;-89
2022/06/15 06:04:17;;;;;;;;;12.25;11.25;;;;;23.43;97.39;101192.13;5028814;28;45007;-87
2022/06/15 06:06:44;;;;;;;;;8.60;7.20;;;;;23.60;97.79;101188.31;5026119;28;44812;-88
2022/06/15 06:09:14;;;;;;;;;9.40;8.40;;;;;23.88;95.86;101196.84;5028442;28;44789;-89
2022/06/15 06:11:40;;;;;;;;;7.80;7.80;;;;;24.17;95.91;101201.56;5031260;28;44822;-88
2022/06/15 06:14:08;;;;;;;;;7.40;7.40;;;;;24.36;93.82;101197.56;5040539;28;45628;-88
2022/06/15 06:16:33;;;;;;;;;8.60;8.60;;;;;24.57;92.41;101202.34;5026973;28;44812;-91
2022/06/15 06:18:59;;;;;;;;;9.75;8.50;;;;;24.80;91.57;101196.84;5032067;28;44698;-86
2022/06/15 06:21:25;;;;;;;;;8.00;6.75;;;;;24.97;90.00;101197.53;5024021;28;45012;-87
2022/06/15 06:23:50;;;;;;;;;11.25;9.25;;;;;25.18;89.19;101196.81;5020618;28;45216;-85
2022/06/15 06:26:22;;;;;;;;;8.50;7.75;;;;;25.29;89.21;101199.94;5025149;28;44878;-84
2022/06/15 06:28:48;;;;;;;;;9.40;8.00;;;;;25.23;87.85;101195.22;5026146;28;44790;-86
2022/06/15 06:31:14;;;;;;;;;12.00;7.50;;;;;25.38;89.13;101196.09;5019598;28;44884;-87
2022/06/15 06:33:40;;;;;;;;;13.80;13.40;;;;;25.44;85.69;101191.78;5000963;28;46753;-87
2022/06/15 06:36:13;;;;;;;;;9.00;9.00;;;;;25.32;91.39;101190.53;5003205;28;45458;-87
2022/06/15 06:38:39;;;;;;;;;9.80;8.20;;;;;25.18;87.32;101191.38;5002221;28;44767;-87
2022/06/15 06:41:05;;;;;;;;;11.25;8.00;;;;;25.13;85.27;101197.38;5019810;28;44847;-86
2022/06/15 06:43:30;;;;;;;;;9.25;8.00;;;;;25.20;85.31;101195.63;5021927;28;45192;-87
2022/06/15 06:45:56;;;;;;;;;8.00;7.25;;;;;25.40;85.70;101200.50;5005769;28;44720;-85
2022/06/15 06:48:21;;;;;;;;;9.50;9.50;;;;;25.50;88.54;101192.88;5023637;28;45429;-86
2022/06/15 06:50:47;;;;;;;;;10.75;10.75;;;;;25.36;82.86;101198.13;5035118;28;44794;-87
2022/06/15 06:53:14;;;;;;;;;10.00;7.75;;;;;25.47;81.67;101202.25;5022337;28;45220;-84
2022/06/15 06:55:40;;;;;;;;;7.20;7.20;;;;;25.60;85.23;101201.59;5037126;28;44747;-86
2022/06/15 06:58:07;;;;;;;;;10.20;7.60;;;;;25.69;79.69;101211.34;5032230;28;44887;-86
2022/06/15 07:00:34;;;;;;;;;8.20;7.40;;;;;25.46;79.85;101203.28;5028110;28;44834;-85
2022/06/15 07:03:01;;;;;;;;;10.40;8.00;;;;;25.33;80.50;101212.09;5028916;28;45391;-86
2022/06/15 07:05:27;;;;;;;;;7.40;6.20;;;;;25.16;82.09;101213.34;5032045;28;44730;-85
2022/06/15 07:07:53;;;;;;;;;15.80;13.60;;;;;25.17;83.12;101204.13;5032107;28;44700;-87
2022/06/15 07:10:20;;;;;;;;;9.00;9.00;;;;;25.31;80.53;101210.63;5016100;28;44801;-89
2022/06/15 07:12:45;;;;;;;;;8.20;7.20;;;;;25.33;77.90;101208.53;5038573;28;45067;-90
2022/06/15 07:15:13;;;;;;;;;10.75;10.75;;;;;25.41;79.06;101208.47;5040028;28;44664;-88
2022/06/15 07:17:39;;;;;;;;;8.20;8.20;;;;;25.66;77.72;101206.25;5040986;28;44835;-89
2022/06/15 07:20:07;;;;;;;;;5.50;5.25;;;;;25.66;74.18;101208.16;5041632;28;44834;-88
2022/06/15 07:22:33;;;;;;;;;8.80;7.60;;;;;25.51;76.95;101202.72;5037274;28;45091;-90
2022/06/15 07:24:59;;;;;;;;;13.20;8.80;;;;;25.53;75.38;101211.53;5044970;28;45278;-91
2022/06/15 07:27:25;;;;;;;;;8.25;8.00;;;;;25.74;75.26;101206.16;5046292;28;45239;-89
2022/06/15 07:29:52;;;;;;;;;8.60;6.20;;;;;25.79;75.62;101217.34;5046967;28;44893;-90
2022/06/15 07:32:18;;;;;;;;;10.00;7.60;;;;;25.94;74.44;101211.03;5044532;28;45076;-90
2022/06/15 07:34:44;;;;;;;;;6.00;6.00;;;;;26.12;74.22;101219.63;5028193;28;44754;-90
2022/06/15 07:37:10;;;;;;;;;8.40;7.40;;;;;26.12;69.79;101216.91;5049036;28;44802;-88
2022/06/15 07:39:37;;;;;;;;;9.00;8.00;;;;;25.84;69.47;101233.13;5030597;28;44799;-90
2022/06/15 07:42:06;;;;;;;;;8.00;8.00;;;;;25.53;68.43;101225.13;5050879;28;45291;-90
2022/06/15 07:44:34;;;;;;;;;9.60;8.00;;;;;25.56;71.12;101217.44;5052955;28;44740;-88
2022/06/15 07:49:55;;;;;;;;;10.00;7.80;;;;;25.91;70.54;101217.69;5048184;28;44737;-91
2022/06/15 07:52:35;;;;;;;;;7.40;7.40;;;;;26.04;69.19;101223.31;5014987;28;45021;-90
2022/06/15 07:55:01;;;;;;;;;6.80;6.80;;;;;26.23;66.09;101212.81;5027756;28;44780;-90
2022/06/15 07:57:27;;;;;;;;;9.00;7.20;;;;;26.30;66.23;101228.22;5026984;28;44889;-90
2022/06/15 07:59:53;;;;;;;;;9.75;8.50;;;;;26.25;67.39;101222.47;5018997;28;44921;-87
2022/06/15 08:02:19;;;;;;;;;12.25;8.75;;;;;26.31;65.95;101218.16;5022935;28;44953;-90
2022/06/15 08:04:50;;;;;;;;;7.80;7.60;;;;;26.23;64.58;101210.09;5024151;28;44850;-88
2022/06/15 08:07:17;;;;;;;;;8.80;8.60;;;;;26.19;65.83;101219.69;5027416;28;44742;-88
2022/06/15 08:09:45;;;;;;;;;6.80;6.80;;;;;26.17;65.45;101210.88;5026605;28;45351;-88
2022/06/15 08:12:15;;;;;;;;;9.40;7.60;;;;;26.09;66.26;101206.38;5024921;28;45693;-88
2022/06/15 08:14:48;;;;;;;;;8.40;8.40;;;;;25.97;65.92;101221.56;5018157;28;45534;-85
2022/06/15 08:17:40;;;;;;;;;4.60;4.60;;;;;25.83;66.60;101209.66;5012806;28;44811;-85
2022/06/15 08:20:06;;;;;;;;;7.00;5.60;;;;;25.64;65.98;101220.06;5001169;28;44780;-86
2022/06/15 08:22:34;;;;;;;;;6.75;5.75;;;;;25.59;67.25;101206.19;5008064;28;45332;-85
2022/06/15 08:25:02;;;;;;;;;6.20;5.60;;;;;25.57;65.15;101197.34;5010476;28;44709;-84
2022/06/15 08:27:28;;;;;;;;;3.00;3.00;;;;;25.69;62.85;101214.06;5002541;28;45356;-85
2022/06/15 08:29:53;;;;;;;;;6.75;6.75;;;;;25.80;62.43;101199.16;5026625;28;45578;-85
2022/06/15 08:32:19;;;;;;;;;9.75;8.25;;;;;25.86;61.28;101207.38;5027625;28;45397;-86
2022/06/15 08:34:45;;;;;;;;;11.00;7.80;;;;;26.06;61.75;101210.34;5023806;28;44807;-84
2022/06/15 08:37:16;;;;;;;;;7.50;7.50;;;;;26.20;63.16;101219.47;5025546;28;44756;-84
2022/06/15 08:39:41;;;;;;;;;7.20;6.20;;;;;26.22;63.27;101202.97;5003916;28;44933;-85
2022/06/15 08:42:38;;;;;;;;;7.25;7.25;;;;;26.13;62.78;101219.44;5018123;28;45469;-84
2022/06/15 08:45:22;;;;;;;;;9.20;8.00;;;;;26.18;62.69;101207.13;4993204;28;45101;-84
2022/06/15 08:47:53;;;;;;;;;9.00;8.00;;;;;26.37;63.11;101204.59;5034487;28;44814;-87
2022/06/15 08:50:35;;;;;;;;;8.00;6.20;;;;;26.63;62.68;101204.00;5018783;28;44882;-85
2022/06/15 08:53:12;;;;;;;;;10.00;7.80;;;;;26.67;61.30;101207.19;5009885;28;46740;-86
2022/06/15 08:55:46;;;;;;;;;9.00;5.20;;;;;26.76;61.85;101202.44;5010730;28;44774;-87
2022/06/15 08:58:36;;;;;;;;;6.40;6.40;;;;;26.99;61.55;101204.94;5015786;28;44687;-86
2022/06/15 09:01:10;;;;;;;;;8.40;7.40;;;;;27.10;58.43;101198.94;5002171;28;44878;-86
2022/06/15 09:03:44;;;;;;;;;4.60;3.20;;;;;27.13;58.72;101210.28;5005445;28;45446;-87
2022/06/15 09:06:43;;;;;;;;;8.60;7.60;;;;;27.12;61.40;101194.09;4986917;28;44962;-86
2022/06/15 09:09:40;;;;;;;;;15.60;11.60;;;;;27.18;60.99;101195.22;5006201;28;44878;-86
2022/06/15 09:15:15;;;;;;;;;8.40;6.60;;;;;27.13;59.81;101191.19;5026513;28;45303;-86
2022/06/15 09:17:43;;;;;;;;;8.80;7.80;;;;;27.23;58.69;101206.38;5015687;28;45405;-85
2022/06/15 09:20:16;;;;;;;;;9.60;6.60;;;;;27.16;57.44;101207.16;5022391;28;44775;-86
2022/06/15 09:22:50;;;;;;;;;7.20;7.00;;;;;27.35;59.29;101199.28;5010659;28;44803;-86
2022/06/15 09:25:21;;;;;;;;;6.60;5.40;;;;;27.38;56.26;101207.91;5026693;28;45109;-84
2022/06/15 09:28:08;;;;;;;;;9.20;7.40;;;;;27.65;56.54;101208.03;5027720;28;44810;-86
2022/06/15 09:30:39;;;;;;;;;5.80;5.80;;;;;27.60;55.68;101207.81;5009122;28;44771;-87
2022/06/15 09:33:32;;;;;;;;;5.40;5.40;;;;;27.63;55.07;101208.25;5006733;28;44763;-86
2022/06/15 09:36:05;;;;;;;;;8.20;6.80;;;;;27.77;55.33;101211.06;5011128;28;45204;-86
2022/06/15 09:38:32;;;;;;;;;8.00;8.00;;;;;27.73;53.94;101209.78;5012135;28;44915;-86
2022/06/15 09:41:29;;;;;;;;;8.00;8.00;;;;;27.73;53.21;101207.91;5015773;28;44746;-87
2022/06/15 09:44:31;;;;;;;;;4.00;4.00;;;;;27.87;54.50;101192.41;4936401;28;45266;-90
2022/06/15 09:47:24;;;;;;;;;6.40;6.40;;;;;28.00;53.40;101197.06;4951042;28;45481;-87
2022/06/15 09:50:03;;;;;;;;;8.00;8.00;;;;;28.06;53.03;101196.25;4944458;28;45279;-86
2022/06/15 09:52:57;;;;;;;;;4.80;4.80;;;;;28.14;52.69;101190.56;4952605;28;44860;-83
2022/06/15 09:55:48;;;;;;;;;6.80;6.80;;;;;28.33;53.29;101197.94;4954495;28;44850;-90
2022/06/15 09:58:18;;;;;;;;;7.60;6.00;;;;;28.29;51.79;101183.06;4948722;28;45129;-89
2022/06/15 10:00:45;;;;;;;;;6.60;4.20;;;;;28.30;53.22;101195.66;4968106;28;44707;-92
2022/06/15 10:03:19;;;;;;;;;8.20;7.00;;;;;27.94;50.88;101193.25;4947839;28;44713;-91
2022/06/15 10:09:37;;;;;;;;;5.40;5.40;;;;;27.71;51.93;101192.75;4981638;28;44901;-94
2022/06/15 10:12:59;;;;;;;;;7.60;7.60;;;;;27.81;50.56;101193.25;4938564;28;44790;-94
2022/06/15 10:16:17;;;;;;;;;9.80;9.80;;;;;27.95;53.90;101194.97;4914177;28;44707;-95
2022/06/15 10:29:07;;;;;;;;;7.80;7.80;;;;;28.31;50.47;101207.44;4903598;28;44918;-94
2022/06/15 10:31:56;;;;;;;;;7.00;7.00;;;;;28.24;50.73;101199.22;4900278;29;44859;-93
2022/06/15 10:34:48;;;;;;;;;8.80;8.80;;;;;28.32;50.07;101199.00;4894842;29;45018;-93
2022/06/15 10:37:56;;;;;;;;;15.60;15.20;;;;;28.51;52.52;101191.06;4860892;29;44732;-94
2022/06/15 10:40:39;;;;;;;;;7.00;7.00;;;;;28.62;51.55;101202.22;4828615;29;44684;-95
2022/06/15 10:43:57;;;;;;;;;10.20;9.20;;;;;28.60;50.82;101206.22;4824445;29;44872;-95
2022/06/15 10:46:57;;;;;;;;;10.00;7.80;;;;;28.63;51.98;101197.63;4822966;29;45133;-93
2022/06/15 10:53:14;;;;;;;;;9.60;7.00;;;;;28.91;49.28;101197.34;4878102;29;44798;-95
2022/06/15 11:09:38;;;;;;;;;7.40;7.00;;;;;29.39;49.83;101191.59;4847242;29;44757;-93
2022/06/15 11:12:39;;;;;;;;;12.00;9.00;;;;;29.34;48.92;101200.47;4849730;29;45133;-93
2022/06/15 11:15:14;;;;;;;;;12.20;10.20;;;;;29.53;49.01;101189.66;4836018;29;44744;-92
2022/06/15 11:18:01;;;;;;;;;9.60;9.60;;;;;29.72;47.88;101196.16;4887976;28;44873;-94
2022/06/15 11:21:17;;;;;;;;;7.20;7.20;;;;;29.59;48.17;101192.44;4923038;28;44842;-95
2022/06/15 11:27:24;;;;;;;;;16.80;16.00;;;;;29.93;48.38;101191.19;4940177;28;44815;-95
2022/06/15 11:30:18;;;;;;;;;17.00;13.40;;;;;30.03;47.11;101178.94;4966426;28;44749;-93
2022/06/15 11:33:14;;;;;;;;;15.20;13.40;;;;;30.21;47.46;101185.34;4965844;28;44905;-94
2022/06/15 11:35:48;;;;;;;;;22.60;16.60;;;;;30.42;46.49;101180.56;4966210;28;45007;-94
2022/06/15 11:38:46;;;;;;;;;13.00;10.40;;;;;30.32;43.82;101193.94;4983656;28;44679;-93
2022/06/15 11:41:27;;;;;;;;;7.00;7.00;;;;;30.22;42.90;101191.69;5012644;28;44617;-94
2022/06/15 11:44:06;;;;;;;;;8.00;8.00;;;;;30.53;45.08;101181.75;4999354;28;44958;-95
2022/06/15 11:56:22;;;;;;;;;9.40;8.80;;;;;31.63;42.26;101179.16;5410942;22;44980;-93
2022/06/15 11:59:18;;;;;;;;;8.40;8.40;;;;;31.31;43.50;101176.59;5047484;28;45442;-94
2022/06/15 12:02:21;;;;;;;;;7.20;7.20;;;;;31.40;41.87;101194.44;5051359;28;44770;-94
2022/06/15 12:05:33;;;;;;;;;9.20;8.80;;;;;31.47;41.80;101186.09;5044910;28;44603;-93
2022/06/15 12:08:47;;;;;;;;;11.00;11.00;;;;;31.71;40.60;101187.91;5006183;28;44703;-94
2022/06/15 12:15:12;;;;;;;;;8.40;8.40;;;;;31.68;38.01;101193.88;5058643;28;44770;-93
2022/06/15 12:18:16;;;;;;;;;9.00;9.00;;;;;31.42;39.63;101189.53;5035828;28;44741;-93
2022/06/15 12:25:06;;;;;;;;;6.60;5.20;;;;;32.15;38.32;101182.25;4941589;28;44978;-95
2022/06/15 12:31:31;;;;;;;;;7.60;7.60;;;;;32.65;38.80;101171.75;4865254;29;44747;-93
2022/06/15 12:37:43;;;;;;;;;9.00;8.00;;;;;32.85;35.69;101165.88;4757647;29;44985;-89
2022/06/15 12:40:49;;;;;;;;;8.40;8.40;;;;;32.96;36.81;101181.56;4744411;30;44753;-95
2022/06/15 12:43:29;;;;;;;;;9.00;9.00;;;;;33.05;33.07;101187.56;4742311;30;44797;-94
2022/06/15 12:50:13;;;;;;;;;10.20;10.20;;;;;32.99;33.98;101185.78;4706907;30;45055;-93
2022/06/15 12:56:52;;;;;;;;;10.20;10.20;;;;;33.43;33.06;101183.47;4701816;30;44824;-94
2022/06/15 13:00:00;;;;;;;;;7.40;7.40;;;;;33.87;34.49;101181.84;4672644;30;44944;-94
2022/06/15 13:02:52;;;;;;;;;7.20;7.20;;;;;34.12;33.20;101191.72;4703218;30;45367;-93
2022/06/15 13:05:34;;;;;;;;;11.00;10.60;;;;;34.44;32.22;101176.28;4756401;29;44797;-93
2022/06/15 13:08:18;;;;;;;;;14.80;8.40;;;;;34.80;32.66;101182.41;4757307;30;44804;-93
2022/06/15 13:10:59;;;;;;;;;10.00;8.40;;;;;34.81;30.71;101186.81;4762303;29;44799;-93
2022/06/15 13:13:55;;;;;;;;;9.60;9.60;;;;;34.53;34.50;101189.72;4842259;29;45127;-93
2022/06/15 13:16:49;;;;;;;;;11.00;10.00;;;;;33.46;35.97;101174.69;4873012;29;44702;-93
2022/06/15 13:22:07;;;;;;;;;13.20;13.20;;;;;33.10;37.17;101176.66;5141851;22;44791;-91
2022/06/15 13:25:07;;;;;;;;;12.00;10.40;;;;;32.58;38.22;101195.75;5038163;28;45116;-90
2022/06/15 13:27:38;;;;;;;;;15.00;12.00;;;;;31.84;39.53;101186.09;5056613;28;44738;-85